Time;durP1;ratioP1;P1;durP2;ratioP2;P2;SDS_P1;SDS_P2;PMS_P1;PMS_P2;Temp;Humidity;BMP_temperature;BMP_pressure;BME280_temperature;BME280_humidity;BME280_pressure;Samples;Min_cycle;Max_cycle;Signal;HPM_P1;HPM_P2
2022/03/13 00:00:49;;;;;;;9.90;3.28;;;6.90;99.90;;;;;;4871085;29;20144;-87
2022/03/13 00:03:16;;;;;;;19.42;4.53;;;6.90;99.90;;;;;;4869451;29;20033;-88
2022/03/13 00:05:47;;;;;;;14.82;3.72;;;6.90;99.90;;;;;;4870944;29;20558;-87
2022/03/13 00:08:31;;;;;;;13.07;3.42;;;6.90;99.90;;;;;;4871462;29;20036;-87
2022/03/13 00:11:07;;;;;;;11.93;3.00;;;6.90;99.90;;;;;;4871667;29;20081;-88
2022/03/13 00:13:35;;;;;;;15.40;3.97;;;6.90;99.90;;;;;;4870858;29;20048;-87
2022/03/13 00:16:08;;;;;;;12.38;4.40;;;6.90;99.90;;;;;;4871064;29;20039;-87
2022/03/13 00:18:36;;;;;;;15.77;3.38;;;6.90;99.90;;;;;;4871621;29;20032;-87
2022/03/13 00:21:03;;;;;;;12.23;3.63;;;7.00;99.90;;;;;;4871155;29;20149;-87
2022/03/13 00:23:34;;;;;;;15.13;3.63;;;7.00;99.90;;;;;;4870117;29;20503;-87
2022/03/13 00:26:01;;;;;;;10.07;2.85;;;7.00;99.90;;;;;;4871776;29;20029;-87
2022/03/13 00:28:27;;;;;;;14.68;4.90;;;7.00;99.90;;;;;;4870178;29;20399;-88
2022/03/13 00:30:52;;;;;;;11.75;3.40;;;7.00;99.90;;;;;;4870498;29;20022;-88
2022/03/13 00:33:18;;;;;;;8.43;3.22;;;7.00;99.90;;;;;;4869242;29;20061;-88
2022/03/13 00:35:44;;;;;;;6.15;3.08;;;7.00;99.90;;;;;;4873145;29;20073;-87
2022/03/13 00:38:12;;;;;;;10.95;2.97;;;7.00;99.90;;;;;;4870164;29;20060;-89
2022/03/13 00:40:39;;;;;;;8.32;3.63;;;7.10;99.90;;;;;;4871736;29;20532;-89
2022/03/13 00:43:07;;;;;;;13.13;3.50;;;7.10;99.90;;;;;;4872206;29;20033;-87
2022/03/13 00:45:33;;;;;;;12.35;3.60;;;7.10;99.90;;;;;;4869150;29;20021;-88
2022/03/13 00:47:59;;;;;;;7.05;3.08;;;7.10;99.90;;;;;;4871349;29;20408;-88
2022/03/13 00:50:25;;;;;;;9.88;3.47;;;7.10;99.90;;;;;;4871771;29;20736;-88
2022/03/13 00:52:51;;;;;;;8.50;3.40;;;7.10;99.90;;;;;;4870459;29;20108;-89
2022/03/13 00:55:17;;;;;;;15.73;4.32;;;7.10;99.90;;;;;;4871186;29;20113;-88
2022/03/13 00:57:43;;;;;;;16.85;3.63;;;7.10;99.90;;;;;;4867990;29;20132;-88
2022/03/13 01:00:11;;;;;;;12.27;4.03;;;7.10;99.90;;;;;;4869234;29;20058;-89
2022/03/13 01:02:38;;;;;;;7.90;3.55;;;7.10;99.90;;;;;;4871315;29;20044;-86
2022/03/13 01:05:04;;;;;;;12.70;3.92;;;7.10;99.90;;;;;;4871139;29;20040;-87
2022/03/13 01:07:30;;;;;;;6.22;3.22;;;7.10;99.90;;;;;;4869945;29;20029;-87
2022/03/13 01:09:55;;;;;;;14.60;4.13;;;7.10;99.90;;;;;;4871390;29;20089;-87
2022/03/13 01:12:21;;;;;;;16.60;4.07;;;7.00;99.90;;;;;;4868507;29;20116;-87
2022/03/13 01:14:47;;;;;;;9.32;4.53;;;7.00;99.90;;;;;;4867327;29;20467;-86
2022/03/13 01:17:17;;;;;;;15.43;4.05;;;7.10;99.90;;;;;;4870089;29;20040;-87
2022/03/13 01:19:43;;;;;;;12.70;4.78;;;7.00;99.90;;;;;;4868884;29;20033;-86
2022/03/13 01:22:11;;;;;;;9.45;4.45;;;7.00;99.90;;;;;;4870510;29;20021;-87
2022/03/13 01:24:46;;;;;;;10.10;4.78;;;7.00;99.90;;;;;;4868724;29;20036;-88
2022/03/13 01:27:16;;;;;;;10.18;4.65;;;7.00;99.90;;;;;;4870746;29;20061;-87
2022/03/13 01:29:42;;;;;;;13.15;5.38;;;7.00;99.90;;;;;;4873529;29;20029;-87
2022/03/13 01:32:10;;;;;;;14.27;5.20;;;7.00;99.90;;;;;;4873819;29;20025;-87
2022/03/13 01:34:42;;;;;;;9.40;4.50;;;7.00;99.90;;;;;;4870265;29;20497;-88
2022/03/13 01:37:26;;;;;;;13.20;5.55;;;7.00;99.90;;;;;;4873822;29;20480;-87
2022/03/13 01:39:52;;;;;;;9.15;5.28;;;7.00;99.90;;;;;;4876148;29;20551;-87
2022/03/13 01:42:18;;;;;;;16.65;7.25;;;7.00;99.90;;;;;;4873721;29;20029;-89
2022/03/13 01:44:44;;;;;;;9.95;5.25;;;7.10;99.90;;;;;;4873823;29;20089;-87
2022/03/13 01:47:09;;;;;;;11.50;5.72;;;7.10;99.90;;;;;;4877456;29;20029;-87
2022/03/13 01:49:35;;;;;;;13.98;5.57;;;7.10;99.90;;;;;;4874280;29;20396;-87
2022/03/13 01:52:01;;;;;;;11.23;4.88;;;7.10;99.90;;;;;;4878057;29;20108;-87
2022/03/13 01:54:28;;;;;;;11.55;4.70;;;7.10;99.90;;;;;;4891091;29;20026;-88
2022/03/13 01:56:54;;;;;;;9.18;4.97;;;7.10;99.90;;;;;;4877403;29;20018;-87
2022/03/13 01:59:26;;;;;;;14.10;5.43;;;7.10;99.90;;;;;;4879453;29;20108;-87
2022/03/13 02:01:51;;;;;;;13.98;5.70;;;7.10;99.90;;;;;;4873070;29;20081;-87
2022/03/13 02:04:27;;;;;;;8.18;4.68;;;7.10;99.90;;;;;;4876594;29;20510;-88
2022/03/13 02:06:55;;;;;;;11.45;5.38;;;7.10;99.90;;;;;;4871579;29;20047;-87
2022/03/13 02:09:24;;;;;;;10.25;5.68;;;7.10;99.90;;;;;;4870358;29;20057;-87
2022/03/13 02:11:51;;;;;;;10.60;6.13;;;7.10;99.90;;;;;;4869262;29;20109;-88
2022/03/13 02:14:20;;;;;;;13.30;5.47;;;7.10;99.90;;;;;;4875069;29;20058;-88
2022/03/13 02:16:47;;;;;;;18.25;6.70;;;7.10;99.90;;;;;;4873896;29;20080;-88
2022/03/13 02:19:15;;;;;;;14.02;5.93;;;7.10;99.90;;;;;;4875008;29;20029;-87
2022/03/13 02:21:52;;;;;;;12.68;5.70;;;7.20;99.90;;;;;;4872764;29;20078;-87
2022/03/13 02:24:24;;;;;;;11.20;5.18;;;7.20;99.90;;;;;;4876387;29;20037;-88
2022/03/13 02:27:02;;;;;;;10.70;6.05;;;7.20;99.90;;;;;;4875951;29;20032;-88
2022/03/13 02:29:28;;;;;;;11.60;4.70;;;7.20;99.90;;;;;;4873167;29;20036;-87
2022/03/13 02:31:55;;;;;;;12.40;6.30;;;7.20;99.90;;;;;;4873138;29;20021;-87
2022/03/13 02:34:21;;;;;;;11.55;6.65;;;7.20;99.90;;;;;;4875434;29;20035;-87
2022/03/13 02:36:49;;;;;;;19.08;7.03;;;7.20;99.90;;;;;;4873784;29;20025;-87
2022/03/13 02:39:15;;;;;;;9.45;6.22;;;7.20;99.90;;;;;;4868106;29;20500;-88
2022/03/13 02:41:43;;;;;;;11.93;5.65;;;7.20;99.90;;;;;;4864221;29;20040;-87
2022/03/13 02:44:14;;;;;;;12.95;6.68;;;7.20;99.90;;;;;;4863338;29;20502;-87
2022/03/13 02:47:01;;;;;;;11.98;6.90;;;7.20;99.90;;;;;;4863137;29;20041;-88
2022/03/13 02:49:30;;;;;;;12.40;6.32;;;7.20;99.90;;;;;;4863518;29;20026;-88
2022/03/13 02:52:00;;;;;;;12.70;6.65;;;7.20;99.90;;;;;;4863347;29;20041;-88
2022/03/13 02:54:25;;;;;;;18.57;8.30;;;7.20;99.90;;;;;;4864896;29;20056;-89
2022/03/13 02:56:52;;;;;;;11.23;7.28;;;7.20;99.90;;;;;;4866228;29;20029;-87
2022/03/13 02:59:18;;;;;;;13.07;6.88;;;7.20;99.90;;;;;;4866405;29;20034;-87
2022/03/13 03:01:44;;;;;;;16.15;7.93;;;7.20;99.90;;;;;;4868422;29;20080;-87
2022/03/13 03:04:10;;;;;;;16.48;7.20;;;7.20;99.90;;;;;;4869316;29;20059;-88
2022/03/13 03:06:39;;;;;;;12.85;6.85;;;7.20;99.90;;;;;;4869787;29;20073;-88
2022/03/13 03:09:05;;;;;;;16.65;8.13;;;7.20;99.90;;;;;;4868097;29;20113;-88
2022/03/13 03:11:34;;;;;;;17.88;8.57;;;7.20;99.90;;;;;;4863207;29;20500;-87
2022/03/13 03:14:02;;;;;;;9.57;6.00;;;7.10;99.90;;;;;;4862793;29;20045;-88
2022/03/13 03:16:28;;;;;;;12.63;7.47;;;7.10;99.90;;;;;;4862865;29;20061;-87
2022/03/13 03:18:54;;;;;;;10.45;5.72;;;7.10;99.90;;;;;;4862553;29;20033;-88
2022/03/13 03:21:19;;;;;;;11.55;6.70;;;7.10;99.90;;;;;;4862425;29;20053;-88
2022/03/13 03:23:45;;;;;;;14.30;8.10;;;7.10;99.90;;;;;;4861251;29;20470;-88
2022/03/13 03:26:11;;;;;;;22.75;9.07;;;7.10;99.90;;;;;;4862221;29;20037;-88
2022/03/13 03:28:36;;;;;;;15.90;8.18;;;7.10;99.90;;;;;;4862259;29;20022;-88
2022/03/13 03:31:03;;;;;;;19.23;8.27;;;7.10;99.90;;;;;;4862236;29;20034;-87
2022/03/13 03:33:29;;;;;;;13.27;7.80;;;7.10;99.90;;;;;;4862289;29;20388;-89
2022/03/13 03:35:55;;;;;;;13.85;8.35;;;7.20;99.90;;;;;;4862090;29;20103;-87
2022/03/13 03:38:21;;;;;;;9.20;6.43;;;7.20;99.90;;;;;;4862144;29;20037;-88
2022/03/13 03:40:48;;;;;;;13.85;8.80;;;7.20;99.90;;;;;;4862102;29;20033;-88
2022/03/13 03:43:14;;;;;;;18.27;10.02;;;7.20;99.90;;;;;;4862182;29;20026;-87
2022/03/13 03:45:40;;;;;;;18.45;8.68;;;7.10;99.90;;;;;;4862109;29;20132;-88
2022/03/13 03:48:06;;;;;;;19.13;9.27;;;7.20;99.90;;;;;;4862183;29;20030;-89
2022/03/13 03:50:32;;;;;;;13.43;8.30;;;7.10;99.90;;;;;;4862190;29;20028;-88
2022/03/13 03:52:58;;;;;;;10.52;8.32;;;7.20;99.90;;;;;;4861924;29;20096;-88
2022/03/13 03:55:26;;;;;;;13.13;8.32;;;7.20;99.90;;;;;;4861872;29;20436;-87
2022/03/13 03:57:53;;;;;;;13.23;8.95;;;7.20;99.90;;;;;;4861978;29;20510;-89
2022/03/13 04:00:23;;;;;;;15.77;7.80;;;7.20;99.90;;;;;;4861740;29;20050;-88
2022/03/13 04:02:49;;;;;;;18.40;8.70;;;7.20;99.90;;;;;;4861861;29;20046;-87
2022/03/13 04:05:15;;;;;;;13.68;8.23;;;7.20;99.90;;;;;;4861720;29;20186;-87
2022/03/13 04:07:40;;;;;;;13.60;7.35;;;7.20;99.90;;;;;;4861863;29;20391;-88
2022/03/13 04:10:08;;;;;;;14.93;7.40;;;7.20;99.90;;;;;;4861690;29;20487;-89
2022/03/13 04:12:34;;;;;;;22.88;8.95;;;7.20;99.90;;;;;;4861778;29;20021;-88
2022/03/13 04:15:03;;;;;;;12.57;6.35;;;7.20;99.90;;;;;;4861696;29;20116;-87
2022/03/13 04:17:29;;;;;;;11.77;6.85;;;7.20;99.90;;;;;;4861417;29;20091;-87
2022/03/13 04:19:55;;;;;;;11.68;6.88;;;7.20;99.90;;;;;;4861307;29;20437;-87
2022/03/13 04:22:21;;;;;;;11.82;6.97;;;7.20;99.90;;;;;;4861587;29;20078;-88
2022/03/13 04:24:46;;;;;;;15.52;7.47;;;7.20;99.90;;;;;;4861498;29;20026;-88
2022/03/13 04:27:13;;;;;;;12.15;8.07;;;7.20;99.90;;;;;;4861552;29;20053;-88
2022/03/13 04:29:40;;;;;;;10.90;7.25;;;7.20;99.90;;;;;;4861395;29;20022;-89
2022/03/13 04:32:09;;;;;;;16.50;8.68;;;7.20;99.90;;;;;;4861431;29;20082;-88
2022/03/13 04:34:35;;;;;;;14.73;8.77;;;7.10;99.90;;;;;;4861115;29;20039;-89
2022/03/13 04:37:01;;;;;;;14.50;9.40;;;7.10;99.90;;;;;;4861543;29;20688;-89
2022/03/13 04:39:27;;;;;;;16.67;9.43;;;7.10;99.90;;;;;;4861671;29;20034;-90
2022/03/13 04:41:54;;;;;;;15.50;9.05;;;7.10;99.90;;;;;;4861490;29;20029;-90
2022/03/13 04:44:21;;;;;;;15.07;9.27;;;7.10;99.90;;;;;;4861570;29;20037;-90
2022/03/13 04:46:47;;;;;;;15.60;9.38;;;7.10;99.90;;;;;;4861253;29;20033;-91
2022/03/13 04:49:12;;;;;;;11.45;7.85;;;7.10;99.90;;;;;;4861267;29;20120;-90
2022/03/13 04:51:39;;;;;;;11.70;6.95;;;7.10;99.90;;;;;;4861438;29;20045;-91
2022/03/13 04:54:06;;;;;;;17.23;8.70;;;7.10;99.90;;;;;;4861190;29;20484;-90
2022/03/13 04:56:32;;;;;;;12.60;8.60;;;7.00;99.90;;;;;;4861344;29;20386;-90
2022/03/13 04:58:58;;;;;;;11.98;8.00;;;7.00;99.90;;;;;;4861115;29;20117;-90
2022/03/13 05:01:24;;;;;;;13.82;8.02;;;7.00;99.90;;;;;;4860976;29;20061;-89
2022/03/13 05:03:50;;;;;;;14.02;8.13;;;7.00;99.90;;;;;;4860841;29;20559;-90
2022/03/13 05:06:16;;;;;;;9.65;7.55;;;7.00;99.90;;;;;;4861259;29;20400;-91
2022/03/13 05:08:42;;;;;;;14.05;7.82;;;7.00;99.90;;;;;;4861818;29;20030;-90
2022/03/13 05:11:07;;;;;;;14.15;8.55;;;7.00;99.90;;;;;;4861807;29;20051;-90
2022/03/13 05:13:36;;;;;;;10.30;7.10;;;7.00;99.90;;;;;;4861601;29;20032;-90
2022/03/13 05:16:03;;;;;;;13.05;7.95;;;7.00;99.90;;;;;;4865480;29;20017;-90
2022/03/13 05:18:29;;;;;;;11.10;7.07;;;7.00;99.90;;;;;;4878698;29;20026;-90
2022/03/13 05:20:55;;;;;;;12.93;7.18;;;7.00;99.90;;;;;;4878225;29;20070;-90
2022/03/13 05:23:20;;;;;;;13.13;7.80;;;7.00;99.90;;;;;;4872729;29;20025;-89
2022/03/13 05:25:47;;;;;;;10.52;7.88;;;7.00;99.90;;;;;;4873237;29;20025;-90
2022/03/13 05:28:12;;;;;;;13.82;7.80;;;6.90;99.90;;;;;;4863013;29;20108;-90
2022/03/13 05:30:39;;;;;;;13.43;7.63;;;7.00;99.90;;;;;;4860869;29;20064;-91
2022/03/13 05:33:06;;;;;;;8.65;7.25;;;6.90;99.90;;;;;;4860870;29;20030;-90
2022/03/13 05:35:32;;;;;;;12.23;8.20;;;7.00;99.90;;;;;;4860866;29;20029;-89
2022/03/13 05:37:58;;;;;;;11.50;7.13;;;6.90;99.90;;;;;;4861065;29;20056;-90
2022/03/13 05:40:24;;;;;;;11.18;7.63;;;6.90;99.90;;;;;;4860924;29;20037;-90
2022/03/13 05:42:55;;;;;;;11.10;7.10;;;6.90;99.90;;;;;;4861025;29;20456;-90
2022/03/13 05:45:22;;;;;;;10.60;7.10;;;6.90;99.90;;;;;;4860743;29;20037;-89
2022/03/13 05:47:53;;;;;;;8.88;5.80;;;6.90;99.90;;;;;;4860199;29;20032;-90
2022/03/13 05:50:20;;;;;;;12.52;7.15;;;6.90;99.90;;;;;;4861264;29;20085;-89
2022/03/13 05:52:47;;;;;;;12.75;7.05;;;6.90;99.90;;;;;;4865755;29;20041;-90
2022/03/13 05:55:14;;;;;;;12.82;7.28;;;6.90;99.90;;;;;;4879000;29;20080;-89
2022/03/13 05:57:40;;;;;;;10.10;7.68;;;6.90;99.90;;;;;;4879570;29;20116;-90
2022/03/13 06:00:09;;;;;;;12.00;7.72;;;6.90;99.90;;;;;;4879235;29;20052;-90
2022/03/13 06:02:36;;;;;;;11.68;6.43;;;6.90;99.90;;;;;;4879750;29;20440;-90
2022/03/13 06:05:03;;;;;;;10.70;7.68;;;6.90;99.90;;;;;;4879406;29;20097;-90
2022/03/13 06:07:28;;;;;;;13.38;7.97;;;6.90;99.90;;;;;;4879321;29;20535;-89
2022/03/13 06:09:56;;;;;;;13.93;7.25;;;6.90;99.90;;;;;;4879247;29;20033;-90
2022/03/13 06:12:22;;;;;;;8.73;6.32;;;6.90;99.90;;;;;;4879118;29;20025;-89
2022/03/13 06:14:48;;;;;;;10.60;5.97;;;6.90;99.90;;;;;;4879186;29;20125;-90
2022/03/13 06:17:13;;;;;;;9.70;6.25;;;6.90;99.90;;;;;;4878742;29;20029;-89
2022/03/13 06:19:42;;;;;;;10.65;6.53;;;6.90;99.90;;;;;;4878704;29;20052;-90
2022/03/13 06:22:09;;;;;;;7.22;5.75;;;6.90;99.90;;;;;;4879513;29;20068;-88
2022/03/13 06:24:35;;;;;;;9.13;6.50;;;6.90;99.90;;;;;;4879069;29;20060;-90
2022/03/13 06:27:01;;;;;;;7.45;5.13;;;6.90;99.90;;;;;;4878922;29;20075;-89
2022/03/13 06:29:26;;;;;;;10.05;6.43;;;6.90;99.90;;;;;;4879638;29;20088;-89
2022/03/13 06:31:52;;;;;;;7.03;3.95;;;6.90;99.90;;;;;;4879492;29;20029;-89
2022/03/13 06:34:18;;;;;;;8.32;6.10;;;6.90;99.90;;;;;;4879460;29;20125;-90
2022/03/13 06:36:44;;;;;;;7.65;4.90;;;6.90;99.90;;;;;;4879694;29;20153;-90
2022/03/13 06:39:10;;;;;;;7.45;5.25;;;6.90;99.90;;;;;;4879644;29;20037;-90
2022/03/13 06:41:36;;;;;;;7.15;4.70;;;6.90;99.90;;;;;;4879427;29;20040;-90
2022/03/13 06:44:02;;;;;;;8.13;4.70;;;6.90;99.90;;;;;;4879708;29;20025;-89
2022/03/13 06:46:28;;;;;;;7.03;5.10;;;6.90;99.90;;;;;;4879595;29;20045;-90
2022/03/13 06:48:54;;;;;;;8.23;4.38;;;6.90;99.90;;;;;;4880596;29;20029;-89
2022/03/13 06:51:20;;;;;;;4.45;3.13;;;6.90;99.90;;;;;;4881218;29;20085;-89
2022/03/13 06:53:45;;;;;;;7.97;5.10;;;6.90;99.90;;;;;;4879293;29;20072;-88
2022/03/13 06:56:12;;;;;;;5.55;4.20;;;6.90;99.90;;;;;;4879074;29;20069;-89
2022/03/13 06:58:39;;;;;;;6.97;4.90;;;6.90;99.90;;;;;;4880185;29;20051;-90
2022/03/13 07:01:05;;;;;;;6.65;4.63;;;6.90;99.90;;;;;;4882361;29;20045;-89
2022/03/13 07:03:32;;;;;;;8.02;5.32;;;6.90;99.90;;;;;;4882427;29;20112;-89
2022/03/13 07:05:58;;;;;;;12.93;5.32;;;6.90;99.90;;;;;;4882502;29;20093;-89
2022/03/13 07:08:24;;;;;;;6.03;5.18;;;6.90;99.90;;;;;;4882134;29;20049;-89
2022/03/13 07:10:50;;;;;;;5.35;3.65;;;6.90;99.90;;;;;;4882446;29;20089;-90
2022/03/13 07:13:18;;;;;;;5.88;4.60;;;6.90;99.90;;;;;;4881727;29;20068;-89
2022/03/13 07:15:44;;;;;;;8.35;4.95;;;6.90;99.90;;;;;;4872500;29;20472;-88
2022/03/13 07:18:10;;;;;;;6.55;4.78;;;7.00;99.90;;;;;;4892482;29;20108;-89
2022/03/13 07:20:36;;;;;;;5.40;4.25;;;7.00;99.90;;;;;;4871628;29;20182;-88
2022/03/13 07:23:01;;;;;;;4.57;3.67;;;7.00;99.90;;;;;;4870737;29;20036;-89
2022/03/13 07:25:27;;;;;;;4.90;3.50;;;7.00;99.90;;;;;;4871606;29;20392;-89
2022/03/13 07:27:53;;;;;;;6.38;3.78;;;7.00;99.90;;;;;;4871139;29;20033;-90
2022/03/13 07:30:19;;;;;;;4.93;3.17;;;7.00;99.90;;;;;;4871738;29;20033;-89
2022/03/13 07:32:45;;;;;;;8.40;3.58;;;7.00;99.90;;;;;;4872073;29;20029;-90
2022/03/13 07:35:11;;;;;;;9.50;3.65;;;7.00;99.90;;;;;;4872378;29;20754;-89
2022/03/13 07:37:38;;;;;;;4.10;2.78;;;7.00;99.90;;;;;;4870789;29;20132;-89
2022/03/13 07:40:04;;;;;;;6.28;3.47;;;7.00;99.90;;;;;;4871778;29;20081;-90
2022/03/13 07:42:30;;;;;;;4.47;3.53;;;7.10;99.90;;;;;;4871742;29;20040;-90
2022/03/13 07:44:56;;;;;;;6.55;4.32;;;7.10;99.90;;;;;;4893805;29;20472;-90
2022/03/13 07:47:22;;;;;;;6.97;3.55;;;7.10;99.90;;;;;;4878021;29;20021;-90
2022/03/13 07:49:47;;;;;;;5.47;3.75;;;7.10;99.90;;;;;;4872520;29;20090;-90
2022/03/13 07:52:13;;;;;;;4.55;3.78;;;7.10;99.90;;;;;;4869311;29;20035;-89
2022/03/13 07:54:39;;;;;;;4.00;3.60;;;7.10;99.90;;;;;;4869250;29;20053;-90
2022/03/13 07:57:05;;;;;;;8.70;4.60;;;7.10;99.90;;;;;;4871492;29;20077;-90
2022/03/13 07:59:30;;;;;;;6.60;4.22;;;7.20;99.90;;;;;;4871334;29;20029;-89
2022/03/13 08:01:56;;;;;;;6.80;4.03;;;7.20;99.90;;;;;;4869640;29;20112;-89
2022/03/13 08:04:21;;;;;;;7.28;4.50;;;7.10;99.90;;;;;;4867251;29;20057;-91
2022/03/13 08:06:47;;;;;;;6.85;4.78;;;7.20;99.90;;;;;;4870937;29;20025;-89
2022/03/13 08:09:13;;;;;;;8.48;4.75;;;7.20;99.90;;;;;;4869371;29;20032;-89
2022/03/13 08:11:39;;;;;;;8.25;3.88;;;7.20;99.90;;;;;;4869389;29;20483;-89
2022/03/13 08:14:07;;;;;;;5.57;3.58;;;7.20;99.90;;;;;;4868426;29;20032;-89
2022/03/13 08:16:33;;;;;;;5.75;3.33;;;7.20;99.90;;;;;;4870784;29;20025;-87
2022/03/13 08:18:59;;;;;;;8.27;4.80;;;7.20;99.90;;;;;;4892190;29;20058;-88
2022/03/13 08:21:26;;;;;;;8.63;5.35;;;7.20;99.90;;;;;;4871213;29;20123;-90
2022/03/13 08:23:52;;;;;;;6.15;4.45;;;7.30;99.90;;;;;;4868424;29;20036;-88
2022/03/13 08:26:18;;;;;;;9.60;3.80;;;7.30;99.90;;;;;;4875544;29;20029;-87
2022/03/13 08:28:44;;;;;;;6.93;4.53;;;7.30;99.90;;;;;;4870108;29;20052;-90
2022/03/13 08:31:11;;;;;;;9.60;5.00;;;7.30;99.90;;;;;;4872404;29;20029;-87
2022/03/13 08:33:37;;;;;;;6.28;4.03;;;7.40;99.90;;;;;;4898911;29;20029;-88
2022/03/13 08:36:04;;;;;;;9.93;4.60;;;7.40;99.90;;;;;;4879667;29;20021;-89
2022/03/13 08:38:30;;;;;;;8.57;4.47;;;7.40;99.90;;;;;;4878150;29;20510;-87
2022/03/13 08:40:56;;;;;;;5.35;3.80;;;7.40;99.90;;;;;;4879518;29;20046;-89
2022/03/13 08:43:22;;;;;;;11.43;4.47;;;7.40;99.90;;;;;;4878011;29;20459;-87
2022/03/13 08:45:48;;;;;;;7.68;3.65;;;7.50;99.90;;;;;;4878575;29;20097;-88
2022/03/13 08:48:13;;;;;;;16.35;5.75;;;7.50;99.90;;;;;;4878601;29;20049;-88
2022/03/13 08:50:39;;;;;;;10.20;4.45;;;7.50;99.90;;;;;;4877448;29;20044;-86
2022/03/13 08:53:06;;;;;;;8.95;4.25;;;7.50;99.90;;;;;;4869445;29;20067;-87
2022/03/13 08:55:31;;;;;;;8.02;4.78;;;7.60;99.90;;;;;;4868601;29;20077;-89
2022/03/13 08:57:57;;;;;;;8.38;4.32;;;7.60;99.90;;;;;;4872061;29;20034;-87
2022/03/13 09:00:24;;;;;;;8.52;5.50;;;7.70;99.90;;;;;;4875422;29;20044;-88
2022/03/13 09:02:50;;;;;;;9.10;4.78;;;7.80;99.90;;;;;;4870811;29;20032;-90
2022/03/13 09:05:16;;;;;;;9.85;4.25;;;7.80;99.90;;;;;;4875400;29;20029;-87
2022/03/13 09:07:42;;;;;;;9.40;5.00;;;7.90;99.90;;;;;;4871716;29;20036;-90
2022/03/13 09:10:09;;;;;;;6.50;4.90;;;8.00;99.90;;;;;;4877234;29;20033;-90
2022/03/13 09:12:35;;;;;;;6.57;4.90;;;8.00;99.90;;;;;;4882254;29;20100;-90
2022/03/13 09:15:02;;;;;;;7.47;4.30;;;8.10;99.90;;;;;;4885381;29;20092;-90
2022/03/13 09:17:28;;;;;;;7.72;5.30;;;8.10;99.90;;;;;;4883146;29;20032;-91
2022/03/13 09:19:55;;;;;;;8.27;4.50;;;8.20;99.90;;;;;;4879812;29;20041;-90
2022/03/13 09:22:24;;;;;;;7.50;3.58;;;8.30;99.90;;;;;;4882931;29;20116;-90
2022/03/13 09:24:57;;;;;;;6.80;3.78;;;8.30;99.90;;;;;;4876789;29;20105;-88
2022/03/13 09:27:26;;;;;;;5.57;3.63;;;8.40;99.90;;;;;;4871958;29;20120;-88
2022/03/13 09:29:54;;;;;;;4.15;3.10;;;8.50;99.90;;;;;;4866072;29;20060;-90
2022/03/13 09:32:22;;;;;;;5.22;2.92;;;8.60;99.90;;;;;;4870661;29;20095;-90
2022/03/13 09:34:48;;;;;;;7.35;3.08;;;8.70;99.90;;;;;;4871716;29;20025;-90
2022/03/13 09:37:14;;;;;;;12.00;3.28;;;8.70;99.90;;;;;;4869965;29;20032;-89
2022/03/13 09:39:42;;;;;;;5.78;2.53;;;8.70;99.90;;;;;;4875254;29;20041;-89
2022/03/13 09:42:09;;;;;;;6.35;2.65;;;8.80;99.90;;;;;;4877377;29;20440;-90
2022/03/13 09:44:34;;;;;;;5.30;2.85;;;8.80;99.90;;;;;;4874066;29;20029;-90
2022/03/13 09:47:06;;;;;;;8.73;3.35;;;8.80;99.90;;;;;;4869474;29;20441;-90
2022/03/13 09:49:32;;;;;;;7.30;2.35;;;8.80;99.90;;;;;;4869532;29;20044;-90
2022/03/13 09:51:59;;;;;;;9.02;1.70;;;8.90;99.90;;;;;;4869414;29;20058;-88
2022/03/13 09:54:27;;;;;;;8.30;2.00;;;8.90;99.90;;;;;;4871415;29;20040;-89
2022/03/13 09:56:53;;;;;;;6.38;2.17;;;8.90;99.90;;;;;;4871793;29;20027;-89
2022/03/13 09:59:19;;;;;;;11.88;2.40;;;9.00;99.90;;;;;;4864814;29;20410;-91
2022/03/13 10:01:45;;;;;;;8.95;2.17;;;9.00;99.90;;;;;;4869673;29;20068;-91
2022/03/13 10:04:12;;;;;;;9.68;1.98;;;9.10;99.90;;;;;;4872283;29;20444;-90
2022/03/13 10:07:11;;;;;;;6.55;1.73;;;9.20;99.90;;;;;;4871472;29;20029;-89
2022/03/13 10:09:39;;;;;;;16.40;1.95;;;9.30;99.90;;;;;;4872842;29;20041;-89
2022/03/13 10:12:13;;;;;;;7.78;2.05;;;9.40;99.90;;;;;;4867546;29;20093;-89
2022/03/13 10:15:03;;;;;;;7.30;1.95;;;9.40;99.90;;;;;;4863371;29;20033;-89
2022/03/13 10:17:32;;;;;;;7.87;2.03;;;9.60;99.90;;;;;;4856485;29;20049;-90
2022/03/13 10:20:30;;;;;;;9.50;1.92;;;9.60;99.90;;;;;;4873748;29;20038;-90
2022/03/13 10:23:02;;;;;;;5.25;1.70;;;9.70;99.90;;;;;;4850548;29;20052;-87
2022/03/13 10:25:34;;;;;;;7.22;1.90;;;9.70;99.90;;;;;;4874302;29;20041;-88
2022/03/13 10:28:19;;;;;;;6.97;2.25;;;9.70;99.90;;;;;;4864686;29;20034;-89
2022/03/13 10:31:13;;;;;;;11.88;1.98;;;9.60;99.90;;;;;;4867861;29;20551;-90
2022/03/13 10:33:44;;;;;;;5.70;1.67;;;9.60;99.90;;;;;;4867735;29;20036;-88
2022/03/13 10:36:35;;;;;;;11.32;2.42;;;9.60;99.90;;;;;;4870346;29;20040;-89
2022/03/13 10:39:03;;;;;;;8.50;1.67;;;9.60;99.90;;;;;;4871502;29;20026;-88
2022/03/13 10:41:39;;;;;;;5.95;1.55;;;9.80;99.90;;;;;;4870630;29;20075;-89
2022/03/13 10:44:13;;;;;;;9.07;2.15;;;10.10;99.90;;;;;;4874515;29;20026;-88
2022/03/13 10:46:39;;;;;;;4.40;1.20;;;10.30;99.90;;;;;;4874081;29;20036;-88
2022/03/13 10:49:07;;;;;;;8.20;1.73;;;10.40;99.90;;;;;;4871668;29;20029;-88
2022/03/13 10:51:45;;;;;;;6.60;1.70;;;10.60;99.90;;;;;;4874046;29;20029;-88
2022/03/13 10:54:29;;;;;;;7.60;1.70;;;10.70;99.90;;;;;;4870664;29;20026;-91
2022/03/13 10:57:09;;;;;;;9.30;1.90;;;10.90;99.90;;;;;;4870672;29;20028;-90
2022/03/13 10:59:36;;;;;;;11.60;1.50;;;10.90;99.90;;;;;;4870450;29;20174;-90
2022/03/13 11:02:21;;;;;;;11.90;2.28;;;11.00;99.90;;;;;;4857063;29;20063;-90
2022/03/13 11:04:57;;;;;;;8.80;1.75;;;10.90;99.90;;;;;;4872085;29;20084;-89
2022/03/13 11:07:26;;;;;;;12.52;1.70;;;10.80;99.90;;;;;;4881109;29;20399;-89
2022/03/13 11:09:55;;;;;;;5.75;1.30;;;10.70;99.90;;;;;;4880360;29;20095;-89
2022/03/13 11:12:22;;;;;;;11.43;1.75;;;10.70;99.90;;;;;;4881609;29;20077;-89
2022/03/13 11:14:50;;;;;;;9.93;1.65;;;10.80;99.90;;;;;;4882120;29;20513;-90
2022/03/13 11:17:19;;;;;;;12.95;1.85;;;11.10;99.90;;;;;;4881809;29;20518;-90
2022/03/13 11:19:50;;;;;;;7.18;1.73;;;11.30;99.90;;;;;;4874380;29;20043;-89
2022/03/13 11:22:19;;;;;;;11.27;1.55;;;11.50;99.90;;;;;;4873586;29;20034;-89
2022/03/13 11:24:45;;;;;;;10.50;1.90;;;11.70;99.90;;;;;;4875674;29;20033;-90
2022/03/13 11:27:13;;;;;;;7.10;1.50;;;11.90;99.90;;;;;;4870814;29;20033;-89
2022/03/13 11:29:43;;;;;;;7.45;1.70;;;12.20;99.90;;;;;;4878660;29;20033;-89
2022/03/13 11:32:40;;;;;;;5.28;1.58;;;12.40;99.90;;;;;;4878657;29;20479;-89
2022/03/13 11:35:14;;;;;;;12.68;1.92;;;12.50;98.10;;;;;;4879959;29;20399;-89
2022/03/13 11:37:51;;;;;;;11.65;2.15;;;12.60;97.80;;;;;;4872132;29;20165;-89
2022/03/13 11:40:19;;;;;;;14.90;1.85;;;12.70;96.90;;;;;;4871648;29;20041;-88
2022/03/13 11:42:47;;;;;;;13.63;2.40;;;12.90;94.60;;;;;;4877938;29;20025;-89
2022/03/13 11:45:32;;;;;;;15.13;2.03;;;13.00;94.00;;;;;;4861089;29;20038;-89
2022/03/13 11:48:32;;;;;;;19.00;2.65;;;13.10;92.90;;;;;;4876801;29;20566;-89
2022/03/13 11:51:00;;;;;;;9.98;1.80;;;13.40;92.00;;;;;;4868852;29;20041;-89
2022/03/13 11:53:40;;;;;;;12.45;1.88;;;13.50;90.60;;;;;;4870367;29;20033;-90
2022/03/13 11:56:06;;;;;;;8.18;1.60;;;13.50;90.40;;;;;;4867162;29;20547;-88
2022/03/13 11:58:45;;;;;;;6.20;0.90;;;13.60;90.30;;;;;;4871301;29;20029;-89
2022/03/13 12:01:15;;;;;;;15.35;2.53;;;13.60;89.90;;;;;;4867757;29;20057;-87
2022/03/13 12:04:00;;;;;;;9.40;1.88;;;13.30;90.00;;;;;;4869900;29;20025;-88
2022/03/13 12:06:42;;;;;;;10.50;1.58;;;13.40;90.60;;;;;;4874394;29;20037;-88
2022/03/13 12:09:17;;;;;;;9.00;1.70;;;13.50;90.70;;;;;;4892597;29;20498;-87
2022/03/13 12:12:03;;;;;;;11.23;2.95;;;13.70;90.60;;;;;;4871544;29;20036;-87
2022/03/13 12:15:02;;;;;;;14.48;2.20;;;13.70;89.30;;;;;;4873464;29;20109;-88
2022/03/13 12:17:30;;;;;;;10.25;2.30;;;13.80;88.80;;;;;;4894560;29;20028;-88
2022/03/13 12:19:58;;;;;;;13.25;2.17;;;13.90;88.20;;;;;;4870567;29;20487;-88
2022/03/13 12:22:25;;;;;;;13.50;2.20;;;14.00;88.70;;;;;;4874880;29;20032;-88
2022/03/13 12:24:57;;;;;;;14.30;2.15;;;14.20;88.00;;;;;;4871823;29;20029;-88
2022/03/13 12:27:23;;;;;;;17.48;2.95;;;14.20;87.00;;;;;;4871117;29;20017;-88
2022/03/13 12:29:57;;;;;;;5.90;1.33;;;14.00;86.90;;;;;;4872515;29;20021;-88
2022/03/13 12:32:34;;;;;;;16.63;2.00;;;14.00;86.30;;;;;;4871753;29;20041;-88
2022/03/13 12:35:02;;;;;;;14.73;2.40;;;13.90;85.30;;;;;;4878518;29;20029;-87
2022/03/13 12:37:31;;;;;;;6.93;1.50;;;13.80;84.70;;;;;;4868563;29;20074;-88
2022/03/13 12:40:00;;;;;;;10.50;1.73;;;13.80;84.30;;;;;;4870573;29;20428;-88
2022/03/13 12:42:27;;;;;;;11.68;1.65;;;13.90;84.50;;;;;;4891363;29;20033;-88
2022/03/13 12:45:03;;;;;;;11.82;1.98;;;14.10;84.30;;;;;;4865211;29;20025;-88
2022/03/13 12:47:30;;;;;;;6.05;1.55;;;14.30;84.50;;;;;;4876321;29;20033;-88
2022/03/13 12:49:59;;;;;;;8.95;1.67;;;14.60;84.00;;;;;;4867787;29;20025;-88
2022/03/13 12:52:26;;;;;;;15.27;2.63;;;14.60;82.00;;;;;;4869345;29;20022;-88
2022/03/13 12:55:00;;;;;;;10.63;1.95;;;14.50;81.10;;;;;;4869515;29;20065;-88
2022/03/13 12:57:26;;;;;;;11.85;2.08;;;14.50;81.80;;;;;;4876603;29;20033;-89